Time;durP1;ratioP1;P1;durP2;ratioP2;P2;SDS_P1;SDS_P2;PMS_P1;PMS_P2;Temp;Humidity;BMP_temperature;BMP_pressure;BME280_temperature;BME280_humidity;BME280_pressure;Samples;Min_cycle;Max_cycle;Signal;HPM_P1;HPM_P2
2022/05/09 00:00:01;;;;;;;;;;;;;;;16.95;54.08;102575.28;1029387;28;694;-59
2022/05/09 00:00:51;;;;;;;;;;;;;;;16.94;54.34;102576.25;1024638;29;691;-60
2022/05/09 00:01:41;;;;;;;;;;;;;;;16.94;54.20;102576.25;1025108;29;599;-60
2022/05/09 00:02:32;;;;;;;;;;;;;;;16.93;53.57;102577.22;1029257;28;662;-60
2022/05/09 00:03:22;;;;;;;;;;;;;;;16.93;53.92;102574.53;1028237;28;651;-60
2022/05/09 00:04:13;;;;;;;;;;;;;;;16.93;53.51;102576.34;1029276;28;681;-60
2022/05/09 00:05:03;;;;;;;;;;;;;;;16.93;54.09;102577.22;1028012;28;1742;-59
2022/05/09 00:05:54;;;;;;;;;;;;;;;16.92;53.91;102580.00;1028668;28;627;-59
2022/05/09 00:06:45;;;;;;;;;;;;;;;16.92;53.92;102570.09;1029852;28;682;-60
2022/05/09 00:07:35;;;;;;;;;;;;;;;16.92;53.66;102574.63;1029297;28;694;-60
2022/05/09 00:08:26;;;;;;;;;;;;;;;16.93;53.86;102579.03;1029951;28;611;-59
2022/05/09 00:09:16;;;;;;;;;;;;;;;16.92;53.93;102577.31;1029859;28;642;-60
2022/05/09 00:10:06;;;;;;;;;;;;;;;16.91;53.68;102579.13;1029880;28;666;-60
2022/05/09 00:10:57;;;;;;;;;;;;;;;16.91;53.73;102573.75;1028188;28;1910;-59
2022/05/09 00:11:47;;;;;;;;;;;;;;;16.91;54.10;102570.19;1028020;28;703;-60
2022/05/09 00:12:38;;;;;;;;;;;;;;;16.90;53.66;102571.16;1029869;28;631;-60
2022/05/09 00:13:28;;;;;;;;;;;;;;;16.91;54.24;102578.28;1029774;28;662;-59
2022/05/09 00:14:19;;;;;;;;;;;;;;;16.89;54.23;102570.28;1029362;28;636;-60
2022/05/09 00:15:09;;;;;;;;;;;;;;;16.89;53.80;102567.59;1029502;28;1717;-59
2022/05/09 00:15:59;;;;;;;;;;;;;;;16.89;53.88;102566.72;1028137;28;648;-61
2022/05/09 00:16:53;;;;;;;;;;;;;;;16.88;53.55;102560.47;1028210;28;631;-58
2022/05/09 00:17:45;;;;;;;;;;;;;;;16.88;53.71;102565.00;1029767;28;655;-58
2022/05/09 00:18:36;;;;;;;;;;;;;;;16.88;53.57;102565.88;1029762;28;683;-58
2022/05/09 00:19:26;;;;;;;;;;;;;;;16.87;53.87;102561.44;1029337;28;635;-59
2022/05/09 00:20:16;;;;;;;;;;;;;;;16.86;53.64;102567.78;1029681;28;686;-59
2022/05/09 00:21:07;;;;;;;;;;;;;;;16.86;53.30;102564.22;1029827;28;639;-58
2022/05/09 00:21:57;;;;;;;;;;;;;;;16.86;53.98;102561.53;1029747;28;651;-59
2022/05/09 00:22:48;;;;;;;;;;;;;;;16.84;54.26;102561.63;1029802;28;599;-58
2022/05/09 00:23:38;;;;;;;;;;;;;;;16.86;53.93;102570.47;1028158;28;678;-60
2022/05/09 00:24:29;;;;;;;;;;;;;;;16.85;53.70;102563.38;1023773;29;663;-58
2022/05/09 00:25:19;;;;;;;;;;;;;;;16.85;53.72;102566.06;1024984;29;642;-58
2022/05/09 00:26:09;;;;;;;;;;;;;;;16.84;53.84;102567.03;1028634;28;616;-59
2022/05/09 00:27:00;;;;;;;;;;;;;;;16.83;53.80;102564.44;1029388;28;1786;-59
2022/05/09 00:27:50;;;;;;;;;;;;;;;16.82;53.74;102566.28;1029433;28;803;-59
2022/05/09 00:28:41;;;;;;;;;;;;;;;16.83;53.38;102562.63;1032667;28;847;-59
2022/05/09 00:29:31;;;;;;;;;;;;;;;16.83;53.98;102565.31;1033755;28;737;-59
2022/05/09 00:30:22;;;;;;;;;;;;;;;16.81;53.94;102556.47;1033868;28;677;-59
2022/05/09 00:31:12;;;;;;;;;;;;;;;16.80;53.82;102560.13;1031662;28;1902;-59
2022/05/09 00:32:03;;;;;;;;;;;;;;;16.80;53.34;102565.50;1032712;28;685;-59
2022/05/09 00:32:53;;;;;;;;;;;;;;;16.81;53.34;102561.00;1031707;28;744;-59
2022/05/09 00:33:43;;;;;;;;;;;;;;;16.80;53.71;102565.50;1030321;28;655;-59
2022/05/09 00:34:37;;;;;;;;;;;;;;;16.80;54.11;102564.66;1024803;29;623;-59
2022/05/09 00:35:27;;;;;;;;;;;;;;;16.79;53.48;102562.91;1025623;28;1723;-59
2022/05/09 00:36:18;;;;;;;;;;;;;;;16.80;53.72;102560.13;1029565;28;674;-59
2022/05/09 00:37:08;;;;;;;;;;;;;;;16.78;53.64;102553.97;1029613;28;622;-59
2022/05/09 00:37:59;;;;;;;;;;;;;;;16.79;53.52;102557.53;1027961;28;1019;-59
2022/05/09 00:38:49;;;;;;;;;;;;;;;16.78;53.96;102556.66;1028156;28;722;-59
2022/05/09 00:39:40;;;;;;;;;;;;;;;16.78;53.60;102561.19;1027963;28;644;-59
2022/05/09 00:40:30;;;;;;;;;;;;;;;16.77;53.75;102554.94;1029248;28;659;-59
2022/05/09 00:41:31;;;;;;;;;;;;;;;16.76;53.99;102547.81;1029619;28;639;-59
2022/05/09 00:42:22;;;;;;;;;;;;;;;16.75;53.67;102550.59;1029109;28;642;-59
2022/05/09 00:43:12;;;;;;;;;;;;;;;16.74;53.18;102549.72;1029594;28;647;-60
2022/05/09 00:44:03;;;;;;;;;;;;;;;16.76;53.78;102552.34;1029675;28;682;-58
2022/05/09 00:44:53;;;;;;;;;;;;;;;16.75;53.63;102553.28;1029282;28;632;-59
2022/05/09 00:45:44;;;;;;;;;;;;;;;16.75;53.77;102555.97;1028822;28;1749;-59
2022/05/09 00:46:34;;;;;;;;;;;;;;;16.73;53.88;102548.00;1029673;28;621;-59
2022/05/09 00:47:25;;;;;;;;;;;;;;;16.73;53.33;102550.69;1029621;28;1623;-59
2022/05/09 00:48:15;;;;;;;;;;;;;;;16.72;53.73;102548.97;1029633;28;706;-59
2022/05/09 00:49:06;;;;;;;;;;;;;;;16.72;53.94;102546.28;1030197;28;619;-59
2022/05/09 00:49:57;;;;;;;;;;;;;;;16.73;53.61;102556.06;1029656;28;825;-59
2022/05/09 00:50:47;;;;;;;;;;;;;;;16.72;53.68;102551.66;1029546;28;1281;-59
2022/05/09 00:51:43;;;;;;;;;;;;;;;16.72;53.65;102551.66;1027277;28;641;-53
2022/05/09 00:52:50;;;;;;;;;;;;;;;16.71;53.53;102547.22;1028090;29;709;-50
2022/05/09 00:53:41;;;;;;;;;;;;;;;16.71;53.78;102552.63;1029140;28;709;-58
2022/05/09 00:54:31;;;;;;;;;;;;;;;16.71;53.61;102549.94;1029782;28;631;-59
2022/05/09 00:55:21;;;;;;;;;;;;;;;16.71;53.67;102549.94;1029185;28;686;-59
2022/05/09 00:56:12;;;;;;;;;;;;;;;16.71;53.60;102549.06;1028414;28;1104;-59
2022/05/09 00:57:02;;;;;;;;;;;;;;;16.71;53.74;102547.22;1029619;28;674;-60
2022/05/09 00:57:53;;;;;;;;;;;;;;;16.70;53.95;102550.88;1029462;28;1659;-59
2022/05/09 00:58:43;;;;;;;;;;;;;;;16.70;53.53;102542.81;1029122;28;686;-59
2022/05/09 00:59:34;;;;;;;;;;;;;;;16.70;53.49;102547.31;1029595;28;604;-59
2022/05/09 01:00:24;;;;;;;;;;;;;;;16.69;53.50;102540.22;1029150;28;662;-60
2022/05/09 01:01:15;;;;;;;;;;;;;;;16.68;53.53;102539.34;1029154;28;682;-59
2022/05/09 01:02:05;;;;;;;;;;;;;;;16.67;53.20;102543.88;1029601;28;682;-59
2022/05/09 01:02:59;;;;;;;;;;;;;;;16.67;53.46;102537.63;1029054;28;615;-59
2022/05/09 01:03:49;;;;;;;;;;;;;;;16.67;53.41;102543.00;1029516;28;733;-59
2022/05/09 01:04:40;;;;;;;;;;;;;;;16.66;53.45;102546.66;1029093;28;686;-59
2022/05/09 01:05:30;;;;;;;;;;;;;;;16.65;53.97;102543.13;1028021;28;632;-59
2022/05/09 01:06:21;;;;;;;;;;;;;;;16.66;53.55;102530.50;1023564;29;1636;-60
2022/05/09 01:07:11;;;;;;;;;;;;;;;16.66;53.51;102538.56;1025478;28;635;-58
2022/05/09 01:08:01;;;;;;;;;;;;;;;16.66;53.83;102541.25;1030002;28;759;-59
2022/05/09 01:08:52;;;;;;;;;;;;;;;16.64;53.65;102538.69;1029687;28;654;-59
2022/05/09 01:09:42;;;;;;;;;;;;;;;16.64;53.68;102532.44;1029523;28;666;-59
2022/05/09 01:10:33;;;;;;;;;;;;;;;16.63;53.94;102536.97;1024177;29;835;-59
2022/05/09 01:11:24;;;;;;;;;;;;;;;16.64;53.47;102540.53;1024336;29;687;-60
2022/05/09 01:12:14;;;;;;;;;;;;;;;16.64;53.91;102538.69;1028067;28;667;-59
2022/05/09 01:13:05;;;;;;;;;;;;;;;16.65;53.63;102540.44;1029599;28;647;-59
2022/05/09 01:13:55;;;;;;;;;;;;;;;16.65;53.84;102542.25;1029761;28;607;-59
2022/05/09 01:14:46;;;;;;;;;;;;;;;16.64;53.45;102543.22;1029347;28;1758;-59
2022/05/09 01:15:36;;;;;;;;;;;;;;;16.63;53.43;102542.34;1026273;28;647;-59
2022/05/09 01:16:26;;;;;;;;;;;;;;;16.62;53.86;102540.59;1025555;28;632;-59
2022/05/09 01:17:17;;;;;;;;;;;;;;;16.62;53.71;102542.41;1024671;29;592;-59
2022/05/09 01:18:07;;;;;;;;;;;;;;;16.60;53.54;102538.94;1025191;28;754;-59
2022/05/09 01:18:58;;;;;;;;;;;;;;;16.60;53.65;102542.50;1025622;28;683;-59
2022/05/09 01:19:52;;;;;;;;;;;;;;;16.61;53.55;102538.00;1025110;28;671;-59
2022/05/09 01:20:42;;;;;;;;;;;;;;;16.59;53.88;102546.16;1025552;28;635;-59
2022/05/09 01:21:33;;;;;;;;;;;;;;;16.60;53.31;102531.75;1025609;28;631;-58
2022/05/09 01:22:24;;;;;;;;;;;;;;;16.59;53.61;102537.22;1026195;28;626;-58
2022/05/09 01:23:14;;;;;;;;;;;;;;;16.59;53.40;102539.91;1025529;28;705;-59
2022/05/09 01:24:05;;;;;;;;;;;;;;;16.58;53.47;102540.88;1025218;28;719;-58
2022/05/09 01:24:55;;;;;;;;;;;;;;;16.58;53.47;102540.88;1026868;28;1684;-59
2022/05/09 01:25:45;;;;;;;;;;;;;;;16.59;53.56;102534.53;1024342;29;710;-60
2022/05/09 01:26:36;;;;;;;;;;;;;;;16.59;53.67;102534.53;1024771;29;640;-59
2022/05/09 01:27:26;;;;;;;;;;;;;;;16.57;53.53;102531.06;1028554;28;718;-59
2022/05/09 01:28:17;;;;;;;;;;;;;;;16.57;53.62;102539.13;1027732;28;773;-58
2022/05/09 01:29:07;;;;;;;;;;;;;;;16.56;53.70;102534.72;1028951;28;608;-59
2022/05/09 01:29:59;;;;;;;;;;;;;;;16.56;53.13;102540.97;1023821;29;655;-59
2022/05/09 01:30:49;;;;;;;;;;;;;;;16.56;53.55;102540.09;1021403;28;667;-59
2022/05/09 01:31:39;;;;;;;;;;;;;;;16.56;53.56;102540.09;1024917;29;627;-58
2022/05/09 01:32:30;;;;;;;;;;;;;;;16.56;53.57;102534.72;1024745;29;607;-58
2022/05/09 01:33:20;;;;;;;;;;;;;;;16.56;53.58;102534.72;1029168;28;634;-58
2022/05/09 01:34:11;;;;;;;;;;;;;;;16.54;53.36;102533.94;1028904;28;717;-58
2022/05/09 01:35:01;;;;;;;;;;;;;;;16.55;53.49;102530.28;1029028;28;674;-59
2022/05/09 01:35:52;;;;;;;;;;;;;;;16.54;52.88;102525.88;1028014;28;688;-59
2022/05/09 01:36:42;;;;;;;;;;;;;;;16.54;53.54;102539.31;1023378;29;1728;-59
2022/05/09 01:37:33;;;;;;;;;;;;;;;16.53;53.48;102524.13;1021215;28;667;-59
2022/05/09 01:38:23;;;;;;;;;;;;;;;16.52;53.40;102533.16;1025861;28;667;-58
2022/05/09 01:39:14;;;;;;;;;;;;;;;16.53;53.78;102537.59;1031442;28;612;-58
2022/05/09 01:40:04;;;;;;;;;;;;;;;16.51;53.74;102531.44;1032501;28;713;-59
2022/05/09 01:40:55;;;;;;;;;;;;;;;16.51;53.74;102534.13;1033149;28;709;-59
2022/05/09 01:41:45;;;;;;;;;;;;;;;16.51;53.48;102524.22;1033003;28;748;-58
2022/05/09 01:42:36;;;;;;;;;;;;;;;16.51;53.47;102523.38;1030975;28;611;-60
2022/05/09 01:43:26;;;;;;;;;;;;;;;16.49;53.53;102527.97;1029634;28;638;-58
2022/05/09 01:44:16;;;;;;;;;;;;;;;16.49;53.59;102530.66;1027941;28;702;-58
2022/05/09 01:45:07;;;;;;;;;;;;;;;16.49;53.64;102531.53;1029717;28;647;-60
2022/05/09 01:45:57;;;;;;;;;;;;;;;16.48;53.51;102529.81;1024200;29;686;-60
2022/05/09 01:50:15;;;;;;;;;;;;;;;16.48;53.69;102523.59;1028409;28;647;-60
2022/05/09 01:51:06;;;;;;;;;;;;;;;16.47;53.49;102517.34;1030233;28;1903;-60
2022/05/09 01:51:56;;;;;;;;;;;;;;;16.46;53.70;102521.00;1028733;28;667;-60
2022/05/09 01:52:47;;;;;;;;;;;;;;;16.46;53.43;102525.50;1025053;29;722;-60
2022/05/09 01:53:37;;;;;;;;;;;;;;;16.45;53.66;102521.09;1024905;29;647;-60
2022/05/09 01:54:27;;;;;;;;;;;;;;;16.46;53.63;102520.13;1028792;28;655;-60
2022/05/09 01:55:18;;;;;;;;;;;;;;;16.45;53.66;102524.63;1030013;28;603;-60
2022/05/09 01:56:08;;;;;;;;;;;;;;;16.45;53.64;102518.41;1030168;28;1087;-60
2022/05/09 01:56:59;;;;;;;;;;;;;;;16.44;53.67;102520.22;1030242;28;654;-60
2022/05/09 01:57:49;;;;;;;;;;;;;;;16.46;53.36;102522.81;1030468;28;659;-60
2022/05/09 01:58:39;;;;;;;;;;;;;;;16.45;53.57;102521.09;1030265;28;622;-60
2022/05/09 01:59:31;;;;;;;;;;;;;;;16.44;53.50;102517.53;1028597;28;639;-60
2022/05/09 02:00:21;;;;;;;;;;;;;;;16.45;53.36;102515.69;1030285;28;638;-60
2022/05/09 02:01:11;;;;;;;;;;;;;;;16.44;53.73;102519.34;1025131;29;1567;-61
2022/05/09 02:02:03;;;;;;;;;;;;;;;16.44;53.42;102519.34;1025912;29;526;-62
2022/05/09 02:02:54;;;;;;;;;;;;;;;16.42;53.40;102521.28;1025230;29;675;-60
2022/05/09 02:03:47;;;;;;;;;;;;;;;16.41;53.43;102503.41;1025127;29;679;-60
2022/05/09 02:04:40;;;;;;;;;;;;;;;16.42;53.51;102521.28;1025244;29;639;-60
2022/05/09 02:05:31;;;;;;;;;;;;;;;16.42;53.52;102518.59;1025121;29;620;-60
2022/05/09 02:06:21;;;;;;;;;;;;;;;16.41;53.53;102519.53;1025307;29;801;-60
2022/05/09 02:07:12;;;;;;;;;;;;;;;16.41;53.55;102514.16;1025194;29;635;-60
2022/05/09 02:08:03;;;;;;;;;;;;;;;16.40;53.58;102512.44;1026302;28;667;-60
2022/05/09 02:08:54;;;;;;;;;;;;;;;16.40;53.25;102512.44;1026320;28;741;-60
2022/05/09 02:09:44;;;;;;;;;;;;;;;16.41;53.63;102511.47;1024764;29;606;-60
2022/05/09 02:10:35;;;;;;;;;;;;;;;16.40;53.67;102504.34;1025734;29;642;-60
2022/05/09 02:11:25;;;;;;;;;;;;;;;16.40;53.42;102510.59;1025166;29;643;-59
2022/05/09 02:12:15;;;;;;;;;;;;;;;16.39;53.65;102510.69;1025858;29;709;-60
2022/05/09 02:13:06;;;;;;;;;;;;;;;16.38;53.58;102515.22;1026383;28;702;-60
2022/05/09 02:13:56;;;;;;;;;;;;;;;16.39;53.51;102499.94;1026311;28;666;-60
2022/05/09 02:14:48;;;;;;;;;;;;;;;16.40;53.61;102512.44;1026152;28;653;-63
2022/05/09 02:15:38;;;;;;;;;;;;;;;16.39;53.59;102510.69;1022082;29;726;-58
2022/05/09 02:16:28;;;;;;;;;;;;;;;16.38;53.53;102508.97;1021009;29;695;-59
2022/05/09 02:17:19;;;;;;;;;;;;;;;16.38;53.32;102508.97;1025857;29;655;-58
2022/05/09 02:18:09;;;;;;;;;;;;;;;16.38;53.58;102514.34;1026165;28;647;-58
2022/05/09 02:19:00;;;;;;;;;;;;;;;16.37;53.27;102515.31;1026279;28;756;-59
2022/05/09 02:19:50;;;;;;;;;;;;;;;16.36;53.50;102516.25;1026153;28;697;-58
2022/05/09 02:20:41;;;;;;;;;;;;;;;16.37;53.51;102510.78;1026195;28;650;-59
2022/05/09 02:21:31;;;;;;;;;;;;;;;16.37;53.43;102512.63;1026095;28;611;-58
2022/05/09 02:22:22;;;;;;;;;;;;;;;16.35;53.67;102509.16;1025225;29;643;-58
2022/05/09 02:23:13;;;;;;;;;;;;;;;16.35;53.56;102506.47;1026290;28;648;-59
2022/05/09 02:24:03;;;;;;;;;;;;;;;16.33;53.63;102510.13;1025694;29;698;-58
2022/05/09 02:24:54;;;;;;;;;;;;;;;16.34;53.51;102513.66;1027044;28;1683;-59
2022/05/09 02:25:45;;;;;;;;;;;;;;;16.33;53.30;102511.94;1030208;28;661;-60
2022/05/09 02:26:37;;;;;;;;;;;;;;;16.33;53.25;102506.56;1030162;28;683;-58
2022/05/09 02:27:28;;;;;;;;;;;;;;;16.35;53.66;102509.16;1030144;28;666;-59
2022/05/09 02:28:18;;;;;;;;;;;;;;;16.34;53.95;102513.66;1029664;28;603;-59
2022/05/09 02:29:09;;;;;;;;;;;;;;;16.34;53.50;102508.28;1028714;28;643;-59
2022/05/09 02:30:00;;;;;;;;;;;;;;;16.32;53.54;102510.19;1029722;28;697;-59
2022/05/09 02:30:51;;;;;;;;;;;;;;;16.32;53.52;102511.06;1028469;28;612;-59
2022/05/09 02:31:41;;;;;;;;;;;;;;;16.32;53.58;102510.19;1030072;28;647;-60
2022/05/09 02:32:32;;;;;;;;;;;;;;;16.32;53.61;102511.06;1024304;29;627;-59
2022/05/09 02:33:22;;;;;;;;;;;;;;;16.31;53.53;102508.47;1025439;29;623;-60
2022/05/09 02:34:13;;;;;;;;;;;;;;;16.30;53.20;102502.22;1030187;28;713;-60
2022/05/09 02:35:03;;;;;;;;;;;;;;;16.30;53.54;102506.78;1029843;28;647;-60
2022/05/09 02:35:54;;;;;;;;;;;;;;;16.28;53.61;102501.50;1030030;28;702;-60
2022/05/09 02:36:44;;;;;;;;;;;;;;;16.28;53.54;102504.19;1029655;28;615;-60
2022/05/09 02:37:35;;;;;;;;;;;;;;;16.29;53.62;102502.34;1026091;28;647;-60
2022/05/09 02:38:28;;;;;;;;;;;;;;;16.29;53.51;102510.41;1026234;28;643;-59
2022/05/09 02:39:19;;;;;;;;;;;;;;;16.27;53.55;102502.44;1026434;28;702;-60
2022/05/09 02:40:09;;;;;;;;;;;;;;;16.30;53.63;102510.28;1026196;28;702;-60
2022/05/09 02:40:59;;;;;;;;;;;;;;;16.29;53.49;102503.22;1026165;28;671;-60
2022/05/09 02:41:50;;;;;;;;;;;;;;;16.29;53.28;102507.72;1024441;29;640;-59
2022/05/09 02:42:40;;;;;;;;;;;;;;;16.28;53.42;102504.19;1026247;28;619;-58
2022/05/09 02:43:31;;;;;;;;;;;;;;;16.29;53.46;102505.03;1026032;28;639;-59
2022/05/09 02:44:21;;;;;;;;;;;;;;;16.28;53.68;102503.31;1026198;28;691;-59
2022/05/09 02:45:12;;;;;;;;;;;;;;;16.28;53.57;102498.78;1020810;29;1669;-59
2022/05/09 02:46:03;;;;;;;;;;;;;;;16.28;53.59;102498.78;1024171;29;670;-59
2022/05/09 02:46:54;;;;;;;;;;;;;;;16.28;53.28;102492.56;1029620;28;646;-59
2022/05/09 02:47:44;;;;;;;;;;;;;;;16.26;53.52;102495.34;1028440;28;643;-59
2022/05/09 02:48:35;;;;;;;;;;;;;;;16.26;53.71;102495.34;1030050;28;657;-59
2022/05/09 02:49:25;;;;;;;;;;;;;;;16.25;53.45;102498.13;1029629;28;586;-59
2022/05/09 02:50:16;;;;;;;;;;;;;;;16.25;53.32;102495.44;1030014;28;674;-59
2022/05/09 02:51:06;;;;;;;;;;;;;;;16.24;53.91;102497.25;1027700;28;1906;-58
2022/05/09 02:51:57;;;;;;;;;;;;;;;16.24;53.65;102491.88;1027344;28;662;-59
2022/05/09 02:52:47;;;;;;;;;;;;;;;16.24;53.47;102496.38;1030196;28;646;-58
2022/05/09 02:53:37;;;;;;;;;;;;;;;16.23;53.55;102495.53;1030421;28;784;-59
2022/05/09 02:54:28;;;;;;;;;;;;;;;16.22;53.55;102496.47;1027547;28;813;-58
2022/05/09 02:55:18;;;;;;;;;;;;;;;16.23;53.32;102494.66;1027417;28;1699;-59
2022/05/09 02:56:10;;;;;;;;;;;;;;;16.23;53.86;102500.03;1024689;29;1136;-59
2022/05/09 02:57:00;;;;;;;;;;;;;;;16.23;53.80;102494.66;1025667;29;683;-59
2022/05/09 02:57:50;;;;;;;;;;;;;;;16.21;53.88;102494.75;1026963;28;1587;-59
2022/05/09 02:58:41;;;;;;;;;;;;;;;16.21;53.69;102497.44;1029659;28;682;-58
2022/05/09 02:59:31;;;;;;;;;;;;;;;16.22;53.40;102493.78;1030229;28;619;-59
2022/05/09 03:00:22;;;;;;;;;;;;;;;16.21;53.39;102491.19;1030076;28;686;-58
2022/05/09 03:01:12;;;;;;;;;;;;;;;16.20;53.60;102493.00;1030205;28;683;-58
2022/05/09 03:02:03;;;;;;;;;;;;;;;16.22;53.52;102492.91;1030080;28;660;-59
2022/05/09 03:05:11;;;;;;;;;;;;;;;16.22;53.56;102492.91;1029613;28;635;-59
2022/05/09 03:06:02;;;;;;;;;;;;;;;16.22;53.52;102492.91;1029960;28;717;-58
2022/05/09 03:06:52;;;;;;;;;;;;;;;16.20;53.42;102489.47;1030114;28;666;-59
2022/05/09 03:07:42;;;;;;;;;;;;;;;16.19;53.63;102488.59;1029425;28;1687;-59
2022/05/09 03:08:33;;;;;;;;;;;;;;;16.19;53.54;102491.28;1029435;28;662;-59
2022/05/09 03:09:23;;;;;;;;;;;;;;;16.19;53.48;102488.59;1028425;28;640;-59
2022/05/09 03:10:14;;;;;;;;;;;;;;;16.18;53.31;102489.56;1028486;28;846;-59
2022/05/09 03:11:04;;;;;;;;;;;;;;;16.17;53.67;102490.50;1029449;28;1910;-59
2022/05/09 03:11:55;;;;;;;;;;;;;;;16.18;53.46;102489.56;1029988;28;639;-59
2022/05/09 03:12:45;;;;;;;;;;;;;;;16.18;53.65;102491.38;1030036;28;696;-60
2022/05/09 03:13:36;;;;;;;;;;;;;;;16.17;53.70;102487.81;1029485;28;698;-60
2022/05/09 03:14:26;;;;;;;;;;;;;;;16.17;53.52;102479.75;1029518;28;640;-59
2022/05/09 03:15:17;;;;;;;;;;;;;;;16.17;53.50;102485.13;1029958;28;671;-59
2022/05/09 03:16:09;;;;;;;;;;;;;;;16.18;53.72;102483.31;1029575;28;615;-60
2022/05/09 03:17:00;;;;;;;;;;;;;;;16.16;53.62;102483.41;1028399;28;668;-59
2022/05/09 03:17:50;;;;;;;;;;;;;;;16.15;53.37;102481.66;1029461;28;632;-59
2022/05/09 03:18:40;;;;;;;;;;;;;;;16.13;53.37;102483.59;1028512;28;726;-59
2022/05/09 03:19:31;;;;;;;;;;;;;;;16.16;53.16;102479.84;1029712;28;1698;-59
2022/05/09 03:20:22;;;;;;;;;;;;;;;16.14;53.52;102485.31;1030005;28;639;-59
2022/05/09 03:21:12;;;;;;;;;;;;;;;16.13;53.55;102480.91;1029690;28;640;-59
2022/05/09 03:22:03;;;;;;;;;;;;;;;16.13;53.83;102478.22;1024767;29;650;-58
2022/05/09 03:22:53;;;;;;;;;;;;;;;16.13;53.52;102485.41;1025884;28;646;-59
2022/05/09 03:23:43;;;;;;;;;;;;;;;16.13;53.52;102482.72;1029887;28;611;-58
2022/05/09 03:24:34;;;;;;;;;;;;;;;16.11;53.39;102480.16;1030499;28;627;-58
2022/05/09 03:25:24;;;;;;;;;;;;;;;16.11;53.77;102474.78;1031020;28;702;-56
2022/05/09 03:26:15;;;;;;;;;;;;;;;16.12;53.34;102476.47;1030289;28;658;-56
2022/05/09 03:27:06;;;;;;;;;;;;;;;16.11;53.35;102468.53;1031113;28;836;-59
2022/05/09 03:27:56;;;;;;;;;;;;;;;16.09;53.59;102471.31;1032585;28;678;-58
2022/05/09 03:28:47;;;;;;;;;;;;;;;16.10;53.45;102470.34;1031298;28;697;-53
2022/05/09 03:29:37;;;;;;;;;;;;;;;16.10;53.64;102467.66;1030486;28;666;-57
2022/05/09 03:30:30;;;;;;;;;;;;;;;16.10;53.33;102467.66;1028661;28;624;-59
2022/05/09 03:31:20;;;;;;;;;;;;;;;16.10;53.76;102470.34;1029916;28;1890;-59
2022/05/09 03:32:11;;;;;;;;;;;;;;;16.09;53.71;102463.25;1026360;28;642;-59
2022/05/09 03:33:01;;;;;;;;;;;;;;;16.10;53.62;102466.81;1020647;29;639;-60
2022/05/09 03:33:51;;;;;;;;;;;;;;;16.11;53.29;102463.16;1020641;29;627;-59
2022/05/09 03:34:42;;;;;;;;;;;;;;;16.09;53.27;102463.25;1024477;29;699;-59
2022/05/09 03:35:32;;;;;;;;;;;;;;;16.09;53.80;102463.25;1025988;28;1030;-59
2022/05/09 03:36:23;;;;;;;;;;;;;;;16.09;53.71;102463.25;1025830;28;655;-59
2022/05/09 03:37:13;;;;;;;;;;;;;;;16.09;53.54;102463.25;1024335;29;615;-59
2022/05/09 03:38:04;;;;;;;;;;;;;;;16.09;53.59;102463.25;1025838;28;664;-59
2022/05/09 03:38:54;;;;;;;;;;;;;;;16.07;53.21;102457.09;1026048;28;655;-59
2022/05/09 03:39:44;;;;;;;;;;;;;;;16.07;53.73;102467.00;1025983;28;631;-60
2022/05/09 03:40:35;;;;;;;;;;;;;;;16.06;53.39;102468.81;1026364;28;626;-60
2022/05/09 03:41:25;;;;;;;;;;;;;;;16.06;53.67;102460.75;1026560;28;651;-59
2022/05/09 03:42:16;;;;;;;;;;;;;;;16.07;53.47;102467.00;1026323;28;623;-59
2022/05/09 03:43:06;;;;;;;;;;;;;;;16.07;53.69;102475.91;1026536;28;758;-60
2022/05/09 03:43:56;;;;;;;;;;;;;;;16.06;53.44;102468.81;1026044;28;654;-59
2022/05/09 03:44:47;;;;;;;;;;;;;;;16.06;53.71;102467.94;1026579;28;710;-59
2022/05/09 03:45:37;;;;;;;;;;;;;;;16.06;53.46;102465.25;1026499;28;793;-59
2022/05/09 03:46:28;;;;;;;;;;;;;;;16.04;53.41;102468.03;1026294;28;662;-59
2022/05/09 03:47:18;;;;;;;;;;;;;;;16.04;53.47;102462.66;1026033;28;663;-60
2022/05/09 03:48:09;;;;;;;;;;;;;;;16.04;53.52;102470.72;1025923;28;631;-59
2022/05/09 03:48:59;;;;;;;;;;;;;;;16.04;53.23;102464.47;1026485;28;674;-60
2022/05/09 03:49:55;;;;;;;;;;;;;;;16.03;53.49;102466.31;1021345;29;1755;-59
2022/05/09 03:50:46;;;;;;;;;;;;;;;16.04;53.26;102468.03;1025410;28;1091;-59
2022/05/09 03:51:36;;;;;;;;;;;;;;;16.03;53.45;102466.31;1028913;28;737;-59
2022/05/09 03:52:27;;;;;;;;;;;;;;;16.03;53.27;102465.44;1030049;28;674;-60
2022/05/09 03:53:18;;;;;;;;;;;;;;;16.03;53.52;102466.31;1029905;28;630;-61
2022/05/09 03:54:08;;;;;;;;;;;;;;;16.03;53.58;102460.94;1029998;28;615;-60
2022/05/09 03:54:58;;;;;;;;;;;;;;;16.02;53.74;102469.94;1029922;28;841;-58
2022/05/09 03:55:49;;;;;;;;;;;;;;;16.01;53.24;102465.53;1029402;28;749;-60
2022/05/09 03:56:39;;;;;;;;;;;;;;;16.01;53.53;102464.66;1030007;28;643;-58
2022/05/09 03:57:30;;;;;;;;;;;;;;;16.00;53.60;102461.13;1029910;28;679;-59
2022/05/09 03:58:20;;;;;;;;;;;;;;;16.01;53.58;102460.16;1029360;28;674;-59
2022/05/09 03:59:11;;;;;;;;;;;;;;;16.00;53.33;102458.44;1029826;28;657;-59
2022/05/09 04:00:02;;;;;;;;;;;;;;;16.00;53.48;102453.03;1025343;28;1696;-59
2022/05/09 04:00:52;;;;;;;;;;;;;;;16.01;53.48;102451.22;1025049;29;645;-59
2022/05/09 04:01:43;;;;;;;;;;;;;;;16.00;53.35;102454.88;1028915;28;679;-59
2022/05/09 04:02:33;;;;;;;;;;;;;;;16.00;53.51;102453.03;1029368;28;674;-60
2022/05/09 04:03:24;;;;;;;;;;;;;;;15.98;53.46;102455.81;1033209;28;690;-59
2022/05/09 04:04:14;;;;;;;;;;;;;;;15.98;53.54;102450.44;1032494;28;686;-59
2022/05/09 04:05:06;;;;;;;;;;;;;;;15.99;53.35;102454.00;1033295;28;702;-58
2022/05/09 04:05:57;;;;;;;;;;;;;;;15.98;53.49;102453.13;1029733;28;686;-59
2022/05/09 04:06:51;;;;;;;;;;;;;;;15.97;53.41;102451.41;1029459;28;823;-59
2022/05/09 04:07:41;;;;;;;;;;;;;;;15.97;53.53;102446.03;1029904;28;620;-60
2022/05/09 04:08:31;;;;;;;;;;;;;;;15.98;53.51;102461.19;1029578;28;714;-59
2022/05/09 04:09:22;;;;;;;;;;;;;;;15.97;53.57;102454.09;1029804;28;731;-59
2022/05/09 04:10:12;;;;;;;;;;;;;;;15.98;53.41;102454.97;1029362;28;643;-59
2022/05/09 04:11:03;;;;;;;;;;;;;;;15.96;53.38;102448.81;1029150;28;1923;-59
2022/05/09 04:11:53;;;;;;;;;;;;;;;15.97;53.50;102458.59;1028000;28;1692;-58
2022/05/09 04:12:44;;;;;;;;;;;;;;;15.96;53.63;102460.44;1029938;28;686;-58
2022/05/09 04:13:34;;;;;;;;;;;;;;;15.96;53.47;102454.19;1029520;28;670;-59
2022/05/09 04:16:52;;;;;;;;;;;;;;;15.98;53.32;102441.50;1029536;28;706;-60
2022/05/09 04:17:42;;;;;;;;;;;;;;;15.97;53.46;102453.22;1030037;28;693;-59
2022/05/09 04:18:33;;;;;;;;;;;;;;;15.98;53.48;102452.28;1028244;28;674;-60
2022/05/09 04:19:23;;;;;;;;;;;;;;;15.97;53.28;102450.53;1029804;28;603;-60
2022/05/09 04:20:14;;;;;;;;;;;;;;;15.97;53.78;102447.84;1028925;28;656;-60
2022/05/09 04:21:04;;;;;;;;;;;;;;;15.96;53.22;102455.06;1029893;28;682;-59
2022/05/09 04:21:55;;;;;;;;;;;;;;;15.96;53.21;102447.00;1029707;28;717;-59
2022/05/09 04:22:45;;;;;;;;;;;;;;;15.95;53.48;102447.06;1023758;29;628;-59
2022/05/09 04:23:36;;;;;;;;;;;;;;;15.96;53.52;102451.50;1023624;29;1684;-59
2022/05/09 04:24:26;;;;;;;;;;;;;;;15.96;53.31;102447.00;1028775;28;662;-59
2022/05/09 04:25:17;;;;;;;;;;;;;;;15.95;53.49;102450.63;1028295;28;702;-59
2022/05/09 04:26:08;;;;;;;;;;;;;;;15.95;53.80;102444.38;1028155;28;734;-59
2022/05/09 04:26:58;;;;;;;;;;;;;;;15.95;53.61;102444.38;1029218;28;694;-60
2022/05/09 04:27:48;;;;;;;;;;;;;;;15.95;53.79;102447.06;1029242;28;694;-58
2022/05/09 04:28:39;;;;;;;;;;;;;;;15.96;53.66;102451.50;1029653;28;639;-59
2022/05/09 04:29:29;;;;;;;;;;;;;;;15.95;53.53;102447.06;1029865;28;619;-59
2022/05/09 04:30:20;;;;;;;;;;;;;;;15.95;53.55;102441.69;1029669;28;662;-59
2022/05/09 04:31:10;;;;;;;;;;;;;;;15.94;53.32;102445.38;1023888;29;1952;-59
2022/05/09 04:32:00;;;;;;;;;;;;;;;15.95;53.50;102442.56;1025532;28;662;-59
2022/05/09 04:32:51;;;;;;;;;;;;;;;15.93;53.53;102449.91;1029374;28;666;-59
2022/05/09 04:33:41;;;;;;;;;;;;;;;15.94;53.59;102445.38;1029167;28;862;-59
2022/05/09 04:34:32;;;;;;;;;;;;;;;15.93;53.76;102449.91;1028212;28;679;-59